Time;durP1;ratioP1;P1;durP2;ratioP2;P2;SDS_P1;SDS_P2;PMS_P1;PMS_P2;Temp;Humidity;BMP_temperature;BMP_pressure;BME280_temperature;BME280_humidity;BME280_pressure;Samples;Min_cycle;Max_cycle;Signal;HPM_P1;HPM_P2
2024/02/01 00:02:21;;;;;;;584.55;271.23;;;;;;;9.60;100.00;98973.22;5027740;28;20148;-62
2024/02/01 00:04:47;;;;;;;554.22;239.18;;;;;;;9.27;100.00;98973.53;5025792;28;20017;-63
2024/02/01 00:07:12;;;;;;;561.10;244.77;;;;;;;9.53;100.00;98965.31;5027697;28;20037;-64
2024/02/01 00:09:37;;;;;;;526.08;240.55;;;;;;;9.54;100.00;98973.09;5027166;28;20121;-65
2024/02/01 00:12:03;;;;;;;568.90;254.23;;;;;;;9.53;100.00;98967.91;5028311;28;20046;-64
2024/02/01 00:14:29;;;;;;;505.58;249.30;;;;;;;9.44;100.00;98966.91;5029230;28;20302;-60
2024/02/01 00:16:54;;;;;;;514.22;252.48;;;;;;;9.65;100.00;98975.88;5029466;28;20034;-61
2024/02/01 00:19:19;;;;;;;610.72;258.90;;;;;;;9.77;100.00;98976.06;5030989;28;20196;-62
2024/02/01 00:21:44;;;;;;;515.83;253.63;;;;;;;9.55;100.00;98971.38;5028452;28;20064;-62
2024/02/01 00:24:10;;;;;;;577.15;258.67;;;;;;;9.48;100.00;98971.31;5026415;28;20029;-61
2024/02/01 00:26:35;;;;;;;580.08;260.90;;;;;;;9.29;100.00;98958.84;5024393;28;20029;-64
2024/02/01 00:29:00;;;;;;;520.40;258.25;;;;;;;9.21;100.00;98966.50;5029586;28;20048;-62
2024/02/01 00:31:26;;;;;;;518.60;261.42;;;;;;;9.18;100.00;98954.34;5026117;28;20045;-62
2024/02/01 00:33:53;;;;;;;560.85;263.95;;;;;;;9.19;100.00;98955.19;5028336;28;20021;-62
2024/02/01 00:36:18;;;;;;;542.05;264.63;;;;;;;9.18;100.00;98964.72;5026203;28;20040;-61
2024/02/01 00:38:43;;;;;;;541.20;260.13;;;;;;;9.05;100.00;98958.41;5026706;28;20040;-64
2024/02/01 00:41:09;;;;;;;588.83;263.25;;;;;;;9.11;100.00;98948.16;5025241;28;20131;-63
2024/02/01 00:43:34;;;;;;;560.25;276.20;;;;;;;9.02;100.00;98953.16;5028570;28;20490;-65
2024/02/01 00:45:59;;;;;;;521.97;272.17;;;;;;;9.16;100.00;98949.97;5028012;28;20057;-63
2024/02/01 00:48:25;;;;;;;574.35;269.48;;;;;;;9.17;100.00;98949.13;5026019;28;20054;-61
2024/02/01 00:50:50;;;;;;;525.90;267.23;;;;;;;9.26;100.00;98946.69;5028062;28;20040;-60
2024/02/01 00:53:15;;;;;;;602.60;275.77;;;;;;;9.24;100.00;98954.44;5028221;28;20040;-62
2024/02/01 00:55:41;;;;;;;578.90;270.63;;;;;;;9.35;100.00;98949.44;5031408;28;20034;-63
2024/02/01 00:58:06;;;;;;;529.88;266.63;;;;;;;9.51;100.00;98947.09;5025929;28;20061;-62
2024/02/01 01:00:32;;;;;;;569.10;270.02;;;;;;;9.50;100.00;98950.53;5027112;28;20037;-62
2024/02/01 01:02:59;;;;;;;593.90;274.77;;;;;;;9.70;100.00;98943.06;5023586;28;20052;-61
2024/02/01 01:05:24;;;;;;;616.80;276.70;;;;;;;9.29;100.00;98932.88;5021153;28;20017;-63
2024/02/01 01:07:49;;;;;;;585.60;274.30;;;;;;;9.46;100.00;98935.75;5022795;28;20027;-64
2024/02/01 01:10:15;;;;;;;667.05;280.85;;;;;;;9.32;100.00;98928.59;5019934;28;20111;-63
2024/02/01 01:12:40;;;;;;;634.10;292.08;;;;;;;10.71;100.00;98937.47;5021086;28;20028;-61
2024/02/01 01:15:06;;;;;;;616.67;341.30;;;;;;;10.45;100.00;98941.53;5022541;28;20060;-61
2024/02/01 01:17:31;;;;;;;675.70;309.25;;;;;;;10.04;100.00;98947.88;5024805;28;20571;-63
2024/02/01 01:20:02;;;;;;;598.80;309.13;;;;;;;10.18;100.00;98936.81;5025067;28;20033;-61
2024/02/01 01:22:28;;;;;;;640.85;367.65;;;;;;;10.86;100.00;98940.25;5020513;28;20034;-62
2024/02/01 01:24:53;;;;;;;747.95;479.92;;;;;;;12.34;100.00;98945.78;5022950;28;20052;-63
2024/02/01 01:27:19;;;;;;;667.58;291.70;;;;;;;11.75;100.00;98942.78;5018503;28;20517;-62
2024/02/01 01:29:44;;;;;;;653.33;408.92;;;;;;;11.03;100.00;98948.25;5021490;28;20324;-62
2024/02/01 01:32:09;;;;;;;725.47;371.73;;;;;;;11.52;100.00;98940.88;5021088;28;20386;-63
2024/02/01 01:34:34;;;;;;;695.80;432.90;;;;;;;11.85;100.00;98955.88;5020802;28;20513;-61
2024/02/01 01:37:00;;;;;;;684.28;450.02;;;;;;;11.58;100.00;98948.75;5024153;28;20033;-61
2024/02/01 01:39:25;;;;;;;769.08;447.13;;;;;;;12.23;100.00;98949.22;5019342;28;20416;-62
2024/02/01 01:41:51;;;;;;;674.53;375.35;;;;;;;11.81;100.00;98945.44;5020674;28;20174;-61
2024/02/01 01:44:16;;;;;;;753.47;414.45;;;;;;;12.55;100.00;98933.69;5021067;28;20021;-61
2024/02/01 01:46:42;;;;;;;711.20;310.75;;;;;;;12.24;100.00;98947.47;5022078;28;20043;-62
2024/02/01 01:49:09;;;;;;;726.08;417.85;;;;;;;11.83;100.00;98948.91;5022215;28;20206;-62
2024/02/01 01:51:36;;;;;;;671.03;346.77;;;;;;;10.89;100.00;98948.13;5025312;28;20489;-61
2024/02/01 01:54:01;;;;;;;698.20;396.00;;;;;;;11.83;100.00;98951.53;5024611;28;20025;-63
2024/02/01 01:56:27;;;;;;;670.55;324.63;;;;;;;11.37;100.00;98952.03;5021992;28;20095;-63
2024/02/01 01:58:54;;;;;;;654.78;312.70;;;;;;;12.15;100.00;98943.09;5022946;28;20021;-62
2024/02/01 02:01:19;;;;;;;774.15;412.77;;;;;;;12.19;100.00;98943.97;5020584;28;20735;-62
2024/02/01 02:03:46;;;;;;;644.00;335.23;;;;;;;11.15;100.00;98946.63;5022143;28;20650;-62
2024/02/01 02:06:12;;;;;;;683.90;381.67;;;;;;;11.43;100.00;98937.31;5021019;28;20041;-62
2024/02/01 02:08:37;;;;;;;734.05;354.88;;;;;;;11.42;100.00;98937.31;5021523;28;20029;-62
2024/02/01 02:11:04;;;;;;;686.90;414.83;;;;;;;11.71;100.00;98939.28;5021955;28;20038;-61
2024/02/01 02:13:29;;;;;;;665.25;308.40;;;;;;;11.61;100.00;98937.47;5019124;28;20022;-63
2024/02/01 02:15:55;;;;;;;731.97;349.55;;;;;;;11.56;100.00;98940.03;5023249;28;20036;-62
2024/02/01 02:18:21;;;;;;;681.63;310.23;;;;;;;11.38;100.00;98943.34;5023022;28;20108;-62
2024/02/01 02:20:50;;;;;;;651.75;354.65;;;;;;;11.40;100.00;98939.91;5021705;28;20043;-62
2024/02/01 02:23:16;;;;;;;731.03;334.67;;;;;;;11.45;100.00;98927.81;5021828;28;20024;-62
2024/02/01 02:25:41;;;;;;;662.42;337.35;;;;;;;11.92;100.00;98920.28;5022301;28;20726;-61
2024/02/01 02:28:07;;;;;;;684.95;430.00;;;;;;;11.47;100.00;98927.78;5020644;28;20037;-62
2024/02/01 02:30:33;;;;;;;712.65;312.95;;;;;;;11.66;100.00;98936.63;5021564;28;20060;-61
2024/02/01 02:32:59;;;;;;;666.33;316.77;;;;;;;10.81;100.00;98931.53;5022323;28;20039;-62
2024/02/01 02:35:24;;;;;;;703.15;320.33;;;;;;;11.39;100.00;98926.88;5022178;28;20251;-61
2024/02/01 02:37:50;;;;;;;707.05;383.33;;;;;;;10.65;100.00;98927.91;5020899;28;20389;-62
2024/02/01 02:40:18;;;;;;;738.70;394.10;;;;;;;10.76;100.00;98928.88;5023594;28;20095;-62
2024/02/01 02:42:43;;;;;;;652.90;298.88;;;;;;;10.74;100.00;98927.13;5022721;28;20033;-62
2024/02/01 02:45:10;;;;;;;637.30;306.92;;;;;;;11.51;100.00;98929.56;5018976;28;20092;-57
2024/02/01 02:47:35;;;;;;;619.85;277.27;;;;;;;11.31;100.00;98935.50;5017810;28;20029;-60
2024/02/01 02:50:00;;;;;;;610.83;286.25;;;;;;;11.12;100.00;98933.56;5021412;28;20217;-60
2024/02/01 02:52:26;;;;;;;735.83;300.67;;;;;;;10.25;100.00;98923.91;5022411;28;20340;-61
2024/02/01 02:54:51;;;;;;;621.42;284.10;;;;;;;9.60;100.00;98903.09;5024526;28;20036;-62
2024/02/01 02:57:16;;;;;;;693.35;317.45;;;;;;;10.34;100.00;98891.06;5023154;28;20073;-62
2024/02/01 02:59:42;;;;;;;692.97;411.85;;;;;;;10.34;100.00;98888.47;5026791;28;20214;-61
2024/02/01 03:02:07;;;;;;;640.35;340.48;;;;;;;10.79;100.00;98897.69;5023395;28;20069;-61
2024/02/01 03:04:36;;;;;;;640.92;316.80;;;;;;;10.68;100.00;98894.09;5026489;28;20053;-61
2024/02/01 03:07:01;;;;;;;648.78;356.58;;;;;;;10.27;100.00;98892.72;5023397;28;20029;-60
2024/02/01 03:09:27;;;;;;;672.95;307.65;;;;;;;10.38;100.00;98887.66;5026231;28;20035;-60
2024/02/01 03:11:53;;;;;;;622.33;300.95;;;;;;;10.44;100.00;98885.19;5024151;28;20038;-61
2024/02/01 03:14:18;;;;;;;736.45;383.80;;;;;;;10.04;100.00;98877.72;5024198;28;20032;-60
2024/02/01 03:16:43;;;;;;;623.58;314.30;;;;;;;10.33;100.00;98868.53;5023532;28;20724;-62
2024/02/01 03:19:11;;;;;;;676.03;290.23;;;;;;;11.02;100.00;98876.22;5025140;28;20021;-62
2024/02/01 03:21:37;;;;;;;655.63;314.42;;;;;;;10.41;100.00;98880.78;5023150;28;20076;-62
2024/02/01 03:24:03;;;;;;;625.40;332.33;;;;;;;10.48;100.00;98875.66;5026018;28;20061;-60
2024/02/01 03:26:35;;;;;;;684.90;295.67;;;;;;;9.81;100.00;98883.47;5021518;28;20124;-61
2024/02/01 03:29:01;;;;;;;617.25;310.23;;;;;;;9.82;100.00;98881.72;5023902;28;20036;-62
2024/02/01 03:31:33;;;;;;;680.17;291.20;;;;;;;9.47;100.00;98883.84;5024100;28;20033;-61
2024/02/01 03:34:05;;;;;;;638.92;288.92;;;;;;;10.10;100.00;98884.72;5025039;28;20037;-63
2024/02/01 03:36:33;;;;;;;618.78;289.95;;;;;;;9.61;100.00;98891.84;5020753;28;20114;-61
2024/02/01 03:38:59;;;;;;;617.47;283.85;;;;;;;9.30;100.00;98887.88;5029162;28;20120;-63
2024/02/01 03:41:25;;;;;;;686.80;295.90;;;;;;;9.07;100.00;98898.75;5021477;28;20155;-62
2024/02/01 03:43:50;;;;;;;618.65;300.70;;;;;;;9.25;100.00;98903.41;5024885;28;20033;-60
2024/02/01 03:46:16;;;;;;;690.38;299.90;;;;;;;9.38;100.00;98905.34;5024005;28;20040;-61
2024/02/01 03:48:42;;;;;;;634.13;349.20;;;;;;;9.72;100.00;98906.69;5023442;28;20108;-62
2024/02/01 03:51:07;;;;;;;611.05;277.52;;;;;;;9.13;100.00;98908.38;5023775;28;20037;-60
2024/02/01 03:53:35;;;;;;;624.03;311.38;;;;;;;9.56;100.00;98909.09;5024292;28;20048;-61
2024/02/01 03:56:03;;;;;;;630.30;302.85;;;;;;;10.09;100.00;98904.63;5024414;28;20033;-63
2024/02/01 03:58:28;;;;;;;677.22;301.67;;;;;;;10.59;100.00;98905.28;5024002;28;20421;-63
2024/02/01 04:00:56;;;;;;;668.20;323.25;;;;;;;9.90;100.00;98913.91;5024533;28;20493;-62
2024/02/01 04:03:21;;;;;;;702.08;295.45;;;;;;;9.23;100.00;98912.88;5023957;28;20413;-61
2024/02/01 04:05:47;;;;;;;629.80;300.60;;;;;;;8.62;100.00;98905.72;5025424;28;20041;-60
2024/02/01 04:08:17;;;;;;;636.25;305.25;;;;;;;8.52;100.00;98899.44;5024238;28;20106;-61
2024/02/01 04:10:44;;;;;;;648.05;348.88;;;;;;;8.35;100.00;98887.03;5023208;28;20034;-62
2024/02/01 04:13:09;;;;;;;632.67;314.02;;;;;;;8.20;100.00;98895.34;5022653;28;20021;-62
2024/02/01 04:15:35;;;;;;;673.70;320.10;;;;;;;8.16;100.00;98894.44;5020520;28;20048;-62
2024/02/01 04:18:03;;;;;;;584.42;294.90;;;;;;;8.19;100.00;98896.19;5023838;28;20029;-63
2024/02/01 04:20:29;;;;;;;608.63;291.38;;;;;;;8.11;100.00;98897.75;5019634;28;20056;-62
2024/02/01 04:22:55;;;;;;;636.85;311.55;;;;;;;8.16;100.00;98894.44;5025507;28;20448;-63
2024/02/01 04:25:23;;;;;;;644.10;280.88;;;;;;;8.20;100.00;98897.94;5023002;28;20456;-61
2024/02/01 04:27:49;;;;;;;592.08;268.45;;;;;;;8.21;100.00;98892.81;5015833;28;20544;-62
2024/02/01 04:30:17;;;;;;;656.90;293.98;;;;;;;8.42;100.00;98901.88;5022649;28;20282;-62
2024/02/01 04:32:42;;;;;;;618.50;293.58;;;;;;;8.45;100.00;98895.88;5021491;28;20358;-63
2024/02/01 04:35:08;;;;;;;625.17;341.90;;;;;;;8.89;100.00;98904.50;5025659;28;20013;-58
2024/02/01 04:37:33;;;;;;;726.55;325.85;;;;;;;8.80;100.00;98911.25;5023414;28;20038;-61
2024/02/01 04:40:00;;;;;;;580.47;310.38;;;;;;;9.10;100.00;98904.88;5024143;28;20520;-65
2024/02/01 04:42:30;;;;;;;658.47;318.40;;;;;;;9.20;100.00;98908.50;5021503;28;20433;-63
2024/02/01 04:44:57;;;;;;;621.22;291.98;;;;;;;9.01;100.00;98909.06;5024265;28;20425;-63
2024/02/01 04:47:24;;;;;;;678.28;318.83;;;;;;;8.97;100.00;98897.72;5024777;28;20157;-63
2024/02/01 04:49:49;;;;;;;640.55;311.33;;;;;;;9.05;100.00;98895.28;5025085;28;20075;-62
2024/02/01 04:52:14;;;;;;;646.65;335.73;;;;;;;8.99;100.00;98891.72;5022029;28;20041;-63
2024/02/01 04:54:40;;;;;;;647.60;333.73;;;;;;;8.76;100.00;98898.22;5022279;28;20050;-61
2024/02/01 04:57:13;;;;;;;649.50;344.88;;;;;;;8.63;100.00;98892.78;5019807;28;20687;-62
2024/02/01 04:59:43;;;;;;;651.50;341.17;;;;;;;8.77;100.00;98887.00;5023061;28;20021;-61
2024/02/01 05:02:09;;;;;;;668.85;370.67;;;;;;;8.73;100.00;98899.03;5026141;28;20039;-61
2024/02/01 05:04:34;;;;;;;752.40;367.20;;;;;;;8.65;100.00;98898.88;5022226;28;20018;-61
2024/02/01 05:06:59;;;;;;;591.75;333.77;;;;;;;8.49;100.00;98899.41;5020061;28;20234;-61
2024/02/01 05:09:25;;;;;;;686.92;334.50;;;;;;;8.28;100.00;98900.72;5019180;28;20151;-60
2024/02/01 05:11:54;;;;;;;668.03;324.63;;;;;;;8.18;100.00;98904.84;5024842;28;20088;-60
2024/02/01 05:14:20;;;;;;;614.65;315.58;;;;;;;7.84;100.00;98907.56;5018474;28;20048;-61
2024/02/01 05:16:47;;;;;;;622.80;359.33;;;;;;;7.87;100.00;98902.44;5023158;28;20033;-61
2024/02/01 05:19:12;;;;;;;661.08;330.23;;;;;;;7.87;100.00;98905.03;5022729;28;20127;-63
2024/02/01 05:21:37;;;;;;;624.28;331.48;;;;;;;7.72;100.00;98904.69;5021293;28;20965;-62
2024/02/01 05:24:04;;;;;;;608.72;391.27;;;;;;;7.82;100.00;98901.47;5024519;28;20036;-60
2024/02/01 05:26:30;;;;;;;708.75;354.38;;;;;;;7.69;100.00;98898.59;5020162;28;20057;-61
2024/02/01 05:28:55;;;;;;;593.65;347.20;;;;;;;7.67;100.00;98913.25;5022571;28;20450;-61
2024/02/01 05:31:21;;;;;;;679.40;373.48;;;;;;;7.57;100.00;98910.41;5018520;28;20044;-61
2024/02/01 05:33:47;;;;;;;631.08;343.33;;;;;;;7.56;100.00;98917.28;5024024;28;20331;-62
2024/02/01 05:36:12;;;;;;;633.33;338.08;;;;;;;7.63;100.00;98919.19;5019915;28;20033;-61
2024/02/01 05:38:38;;;;;;;627.10;343.48;;;;;;;7.49;100.00;98915.38;5021615;28;20103;-60
2024/02/01 05:41:11;;;;;;;626.63;346.75;;;;;;;7.32;100.00;98915.88;5023785;28;20037;-61
2024/02/01 05:43:39;;;;;;;705.28;332.40;;;;;;;7.33;100.00;98921.91;5018255;28;20598;-60
2024/02/01 05:46:09;;;;;;;628.13;331.33;;;;;;;7.41;100.00;98921.25;5021034;28;20025;-61
2024/02/01 05:48:35;;;;;;;691.75;341.48;;;;;;;7.45;100.00;98914.44;5020637;28;20356;-60
2024/02/01 05:51:02;;;;;;;591.42;328.00;;;;;;;7.46;100.00;98912.72;5023154;28;20034;-60
2024/02/01 05:53:27;;;;;;;712.42;320.65;;;;;;;7.43;100.00;98916.97;5019567;28;20055;-61
2024/02/01 05:55:52;;;;;;;552.80;292.30;;;;;;;7.41;100.00;98921.25;5024546;28;20037;-61
2024/02/01 05:58:18;;;;;;;567.72;277.95;;;;;;;7.47;100.00;98924.81;5022247;28;20071;-61
2024/02/01 06:00:43;;;;;;;607.03;301.55;;;;;;;7.63;100.00;98920.88;5021465;28;20087;-61
2024/02/01 06:03:08;;;;;;;571.45;282.58;;;;;;;7.67;100.00;98921.00;5022351;28;20025;-60
2024/02/01 06:05:34;;;;;;;669.63;302.65;;;;;;;7.66;100.00;98916.66;5022189;28;20033;-61
2024/02/01 06:07:59;;;;;;;541.05;272.38;;;;;;;7.56;100.00;98917.28;5019383;28;20033;-61
2024/02/01 06:10:25;;;;;;;670.83;304.48;;;;;;;7.61;100.00;98920.84;5020721;28;20064;-61
2024/02/01 06:12:50;;;;;;;542.35;264.23;;;;;;;7.79;100.00;98924.69;5019373;28;20108;-60
2024/02/01 06:15:16;;;;;;;626.38;294.33;;;;;;;7.81;100.00;98926.50;5021886;28;20083;-62
2024/02/01 06:17:41;;;;;;;574.92;278.95;;;;;;;7.68;100.00;98925.34;5023321;28;20383;-61
2024/02/01 06:20:08;;;;;;;535.55;269.88;;;;;;;7.74;100.00;98923.72;5024221;28;20172;-61
2024/02/01 06:22:34;;;;;;;622.88;282.17;;;;;;;7.67;100.00;98925.28;5021779;28;20026;-61
2024/02/01 06:24:59;;;;;;;564.25;282.25;;;;;;;7.81;100.00;98926.50;5019995;28;20033;-62
2024/02/01 06:27:24;;;;;;;585.95;285.88;;;;;;;7.72;100.00;98930.59;5024101;28;20041;-60
2024/02/01 06:29:50;;;;;;;613.72;280.65;;;;;;;7.67;100.00;98933.94;5030311;28;20021;-62
2024/02/01 06:32:19;;;;;;;558.30;287.83;;;;;;;7.84;100.00;98936.06;5024589;28;20132;-61
2024/02/01 06:34:53;;;;;;;587.42;313.02;;;;;;;7.97;100.00;98928.56;5025959;28;20029;-63
2024/02/01 06:37:20;;;;;;;609.53;366.50;;;;;;;8.10;100.00;98928.00;5023327;28;20098;-63
2024/02/01 06:40:09;;;;;;;603.70;314.42;;;;;;;8.13;100.00;98935.81;5025816;28;20016;-60
2024/02/01 06:42:36;;;;;;;633.38;361.13;;;;;;;8.30;100.00;98941.38;5025845;28;20048;-61
2024/02/01 06:45:24;;;;;;;593.35;315.27;;;;;;;8.05;100.00;98945.13;5027220;28;20512;-60
2024/02/01 06:47:50;;;;;;;621.95;321.30;;;;;;;7.93;100.00;98945.75;5023166;28;20041;-62
2024/02/01 06:50:17;;;;;;;620.83;335.73;;;;;;;8.04;100.00;98943.41;5023374;28;20487;-61
2024/02/01 06:52:49;;;;;;;614.65;288.67;;;;;;;8.02;100.00;98934.72;5023748;28;20030;-61
2024/02/01 06:55:36;;;;;;;568.67;305.33;;;;;;;8.13;100.00;98935.81;5027038;28;20103;-64
2024/02/01 07:00:40;;;;;;;635.08;283.30;;;;;;;7.66;100.00;98932.22;5022828;28;20333;-63
2024/02/01 07:03:13;;;;;;;595.00;281.77;;;;;;;7.69;100.00;98941.75;5024943;28;20472;-62
2024/02/01 07:08:26;;;;;;;642.30;307.88;;;;;;;7.44;100.00;98943.75;5023723;28;20029;-64
2024/02/01 07:10:58;;;;;;;585.65;300.17;;;;;;;8.32;100.00;98946.59;5023655;28;20128;-63
2024/02/01 07:13:45;;;;;;;614.92;326.42;;;;;;;8.11;100.00;98945.28;5024709;28;20025;-63
2024/02/01 07:16:21;;;;;;;588.08;292.33;;;;;;;7.90;100.00;98950.84;5022735;28;20040;-62
2024/02/01 07:18:57;;;;;;;623.03;285.98;;;;;;;7.85;100.00;98958.53;5022423;28;20017;-64
2024/02/01 07:21:31;;;;;;;569.63;286.05;;;;;;;7.81;100.00;98954.13;5024054;28;20041;-60
2024/02/01 07:24:07;;;;;;;599.10;287.35;;;;;;;8.38;100.00;98949.31;5024449;28;20037;-62
2024/02/01 07:26:43;;;;;;;642.90;328.27;;;;;;;8.39;100.00;98952.78;5022879;28;20128;-61
2024/02/01 07:59:37;;;;;;;605.58;273.23;;;;;;;7.63;100.00;98977.84;5011176;28;20120;-62
2024/02/01 08:02:13;;;;;;;555.28;298.63;;;;;;;7.83;100.00;98986.09;5023369;28;20045;-62
2024/02/01 08:10:06;;;;;;;553.65;280.23;;;;;;;7.89;100.00;98986.25;5021529;28;20084;-65
2024/02/01 08:12:33;;;;;;;654.65;290.33;;;;;;;7.79;100.00;98989.44;5021062;28;20021;-65
2024/02/01 08:14:58;;;;;;;617.45;304.20;;;;;;;7.74;100.00;98996.25;5020949;28;20032;-63
2024/02/01 08:17:24;;;;;;;571.67;287.05;;;;;;;7.85;100.00;98994.78;5022435;28;20052;-64
2024/02/01 08:19:49;;;;;;;590.95;361.13;;;;;;;8.00;100.00;98998.56;5022293;28;20771;-65
2024/02/01 08:22:14;;;;;;;618.15;324.30;;;;;;;8.14;100.00;98993.72;5020971;28;20702;-63
2024/02/01 08:24:40;;;;;;;713.17;324.73;;;;;;;7.86;100.00;98999.13;5020837;28;20114;-62
2024/02/01 08:27:05;;;;;;;582.97;312.55;;;;;;;7.93;100.00;99001.03;5023224;28;20045;-64
2024/02/01 08:29:35;;;;;;;690.63;324.63;;;;;;;7.99;100.00;99002.00;5021551;28;20206;-63
2024/02/01 08:32:01;;;;;;;578.72;323.45;;;;;;;8.05;100.00;99002.13;5021523;28;20045;-65
2024/02/01 08:34:26;;;;;;;598.85;335.58;;;;;;;8.15;100.00;99009.31;5023645;28;20025;-64
2024/02/01 08:36:52;;;;;;;629.03;331.08;;;;;;;8.25;100.00;99010.41;5021703;28;20030;-66
2024/02/01 08:39:17;;;;;;;675.47;335.45;;;;;;;8.23;100.00;99011.19;5021782;28;20462;-67
2024/02/01 08:41:42;;;;;;;712.25;344.35;;;;;;;8.04;100.00;99016.84;5024275;28;20025;-66
2024/02/01 08:44:08;;;;;;;646.67;342.65;;;;;;;8.05;100.00;99010.81;5024382;28;20293;-64
2024/02/01 08:46:34;;;;;;;696.05;339.08;;;;;;;7.91;100.00;99013.06;5021467;28;20025;-63
2024/02/01 08:49:00;;;;;;;573.25;315.15;;;;;;;8.04;100.00;99015.94;5023414;28;20443;-65
2024/02/01 08:51:26;;;;;;;576.22;285.70;;;;;;;8.16;100.00;99017.94;5020910;28;20333;-63
2024/02/01 08:53:52;;;;;;;581.83;293.83;;;;;;;8.02;100.00;99015.03;5021408;28;20084;-65
2024/02/01 08:56:20;;;;;;;590.83;301.27;;;;;;;8.00;100.00;99011.53;5019715;28;20033;-62
2024/02/01 08:58:49;;;;;;;754.05;327.73;;;;;;;7.99;100.00;99004.59;5016517;28;20519;-65
2024/02/01 09:01:24;;;;;;;659.83;313.17;;;;;;;8.10;100.00;99013.50;5019318;28;20061;-64
2024/02/01 09:03:50;;;;;;;625.95;397.10;;;;;;;8.29;100.00;99016.50;5019235;28;20037;-62
2024/02/01 09:06:16;;;;;;;571.55;303.02;;;;;;;7.95;100.00;99016.63;5026707;28;20033;-61
2024/02/01 09:08:42;;;;;;;687.85;349.08;;;;;;;7.84;100.00;99024.13;5026893;28;20021;-64
2024/02/01 09:11:17;;;;;;;608.92;335.77;;;;;;;7.87;100.00;99019.00;5027227;28;20096;-64
2024/02/01 09:13:44;;;;;;;714.75;358.45;;;;;;;7.80;100.00;99023.16;5025121;28;20218;-64
2024/02/01 09:16:11;;;;;;;573.13;315.83;;;;;;;8.15;100.00;99023.97;5026561;28;20101;-61
2024/02/01 09:18:37;;;;;;;598.28;317.67;;;;;;;8.49;100.00;99029.91;5026478;28;20029;-62
2024/02/01 09:21:02;;;;;;;504.65;304.88;;;;;;;8.58;100.00;99031.88;5025586;28;20302;-63
2024/02/01 09:23:28;;;;;;;528.65;315.08;;;;;;;8.45;100.00;99039.34;5028461;28;20901;-63
2024/02/01 09:25:53;;;;;;;606.00;376.38;;;;;;;8.62;100.00;99036.28;5026780;28;20328;-63
2024/02/01 09:28:18;;;;;;;591.53;363.15;;;;;;;8.80;100.00;99038.38;5025194;28;20033;-63
2024/02/01 09:30:46;;;;;;;673.13;330.60;;;;;;;8.98;100.00;99044.78;5023094;28;20029;-62
2024/02/01 09:33:13;;;;;;;589.40;334.33;;;;;;;8.69;100.00;99039.88;5024231;28;20025;-62
2024/02/01 09:35:39;;;;;;;702.15;361.17;;;;;;;8.66;100.00;99040.69;5023855;28;20056;-63
2024/02/01 09:38:04;;;;;;;551.97;329.75;;;;;;;8.66;100.00;99043.28;5024718;28;20100;-65
2024/02/01 09:40:30;;;;;;;652.28;388.02;;;;;;;8.63;100.00;99045.81;5023800;28;20064;-64
2024/02/01 09:42:55;;;;;;;571.40;344.98;;;;;;;8.56;100.00;99047.41;5021142;28;20017;-62
2024/02/01 09:45:28;;;;;;;630.67;358.55;;;;;;;8.69;100.00;99040.75;5024107;28;20028;-62
2024/02/01 09:47:55;;;;;;;578.17;338.10;;;;;;;8.70;100.00;99034.72;5024300;28;20025;-62
2024/02/01 09:50:20;;;;;;;563.45;338.98;;;;;;;8.69;100.00;99038.16;5024644;28;20029;-62
2024/02/01 09:52:47;;;;;;;700.88;344.63;;;;;;;8.68;100.00;99035.50;5025280;28;20518;-65
2024/02/01 09:55:17;;;;;;;600.50;395.50;;;;;;;8.73;100.00;99036.50;5024533;28;20047;-62
2024/02/01 09:57:45;;;;;;;690.30;311.10;;;;;;;8.66;100.00;99037.22;5024359;28;20021;-62
2024/02/01 10:00:17;;;;;;;565.53;293.02;;;;;;;8.78;100.00;99045.25;5028015;28;20514;-63
2024/02/01 10:02:44;;;;;;;655.08;334.65;;;;;;;7.26;100.00;99048.56;5025892;28;20032;-61
2024/02/01 10:05:09;;;;;;;536.85;348.42;;;;;;;6.84;100.00;99051.69;5027734;28;20022;-65
2024/02/01 10:07:35;;;;;;;639.38;513.45;;;;;;;6.77;100.00;99048.06;5028726;28;20439;-64
2024/02/01 10:10:03;;;;;;;561.95;428.73;;;;;;;6.77;100.00;99058.41;5029541;28;20084;-65
2024/02/01 10:12:29;;;;;;;595.30;461.65;;;;;;;6.79;100.00;99059.31;5025260;28;20037;-64
2024/02/01 10:14:55;;;;;;;518.90;407.52;;;;;;;6.74;100.00;99063.47;5027433;28;20257;-64
2024/02/01 10:17:20;;;;;;;551.33;409.77;;;;;;;6.76;100.00;99064.41;5027846;28;20045;-65
2024/02/01 10:19:49;;;;;;;714.45;463.50;;;;;;;6.82;100.00;99058.50;5026367;28;20022;-65
2024/02/01 10:22:15;;;;;;;545.88;411.85;;;;;;;6.75;100.00;99063.53;5027973;28;20033;-62
2024/02/01 10:24:45;;;;;;;675.20;488.05;;;;;;;6.70;100.00;99054.75;5026368;28;20440;-64
2024/02/01 10:27:12;;;;;;;615.10;495.92;;;;;;;6.71;100.00;99056.50;5026789;28;20064;-64
2024/02/01 10:29:42;;;;;;;602.20;442.63;;;;;;;6.74;100.00;99058.28;5026884;28;20073;-62
2024/02/01 10:32:14;;;;;;;498.27;300.52;;;;;;;7.21;100.00;99052.75;5030491;28;20025;-63
2024/02/01 10:34:50;;;;;;;593.67;333.80;;;;;;;7.57;100.00;99051.06;5028936;28;20431;-66
2024/02/01 10:37:21;;;;;;;538.60;309.17;;;;;;;7.61;100.00;99058.06;5030532;28;20060;-63
2024/02/01 10:39:59;;;;;;;582.70;304.98;;;;;;;7.82;100.00;99056.88;5026986;28;20089;-62
2024/02/01 10:42:29;;;;;;;519.05;300.10;;;;;;;7.90;100.00;99044.09;5030393;28;20044;-64
2024/02/01 10:45:02;;;;;;;551.88;321.77;;;;;;;7.96;100.00;99041.69;5026009;28;21953;-62
2024/02/01 10:47:33;;;;;;;508.50;290.52;;;;;;;8.07;100.00;99037.63;5027931;28;20527;-64
2024/02/01 10:50:00;;;;;;;558.33;291.25;;;;;;;8.29;100.00;99030.34;5027943;28;20125;-61
2024/02/01 10:52:27;;;;;;;532.75;291.02;;;;;;;8.57;100.00;99027.50;5030552;28;20110;-62
2024/02/01 10:54:53;;;;;;;618.25;314.02;;;;;;;8.66;100.00;99026.84;5028288;28;20045;-64
2024/02/01 10:57:19;;;;;;;594.92;313.05;;;;;;;8.85;100.00;99030.69;5030506;28;20112;-66
2024/02/01 10:59:47;;;;;;;633.75;321.13;;;;;;;9.27;100.00;99030.66;5026439;28;20534;-65
2024/02/01 11:02:14;;;;;;;573.03;328.98;;;;;;;9.10;100.00;99034.63;5029543;28;20040;-65
2024/02/01 11:04:44;;;;;;;669.75;331.85;;;;;;;9.24;100.00;99019.34;5025227;28;20463;-63
2024/02/01 11:07:17;;;;;;;584.15;331.75;;;;;;;9.94;100.00;98998.84;5026339;28;20038;-65
2024/02/01 11:09:43;;;;;;;745.17;334.75;;;;;;;10.03;100.00;99003.34;5024808;28;20022;-65
2024/02/01 11:12:15;;;;;;;571.83;301.92;;;;;;;10.78;100.00;99002.66;5026201;28;20436;-65
2024/02/01 11:14:40;;;;;;;627.40;313.42;;;;;;;10.72;100.00;98999.94;5026627;28;20022;-63
2024/02/01 11:17:09;;;;;;;588.72;294.67;;;;;;;11.19;100.00;99005.69;5026630;28;20060;-62
2024/02/01 11:19:36;;;;;;;559.70;286.33;;;;;;;10.62;100.00;99003.31;5029054;28;20028;-62
2024/02/01 11:22:03;;;;;;;550.40;303.80;;;;;;;10.81;100.00;99007.00;5026711;28;20518;-62
2024/02/01 11:24:35;;;;;;;613.83;310.38;;;;;;;11.17;100.00;99003.06;5028721;28;20059;-63
2024/02/01 11:27:13;;;;;;;605.22;345.80;;;;;;;11.06;100.00;99000.34;5026713;28;20505;-64
2024/02/01 11:29:45;;;;;;;653.92;350.35;;;;;;;11.13;100.00;99000.44;5026671;28;20033;-63
2024/02/01 11:32:15;;;;;;;605.35;310.50;;;;;;;10.69;100.00;98997.31;5028291;28;20042;-63
2024/02/01 11:34:49;;;;;;;698.03;332.58;;;;;;;11.24;100.00;98992.72;5025372;28;20489;-66
2024/02/01 11:37:18;;;;;;;610.88;328.38;;;;;;;10.61;100.00;99006.78;5027060;28;20485;-63
2024/02/01 11:39:47;;;;;;;740.97;341.02;;;;;;;11.23;100.00;99003.97;5025578;28;20021;-65
2024/02/01 11:42:13;;;;;;;652.95;428.85;;;;;;;11.66;100.00;98996.56;5027154;28;20038;-62